Time;durP1;ratioP1;P1;durP2;ratioP2;P2;SDS_P1;SDS_P2;PMS_P1;PMS_P2;Temp;Humidity;BMP_temperature;BMP_pressure;BME280_temperature;BME280_humidity;BME280_pressure;Samples;Min_cycle;Max_cycle;Signal;HPM_P1;HPM_P2
2022/05/26 00:00:29;;;;;;;;;6.00;6.00;;;;;-147.17;100.00;59696.56;5045095;28;9176;-69
2022/05/26 00:02:55;;;;;;;;;2.00;2.00;;;;;-147.17;100.00;59696.56;5062701;28;9494;-69
2022/05/26 00:05:20;;;;;;;;;5.33;5.33;;;;;-147.17;100.00;59696.56;5046402;28;8965;-69
2022/05/26 00:07:46;;;;;;;;;3.00;3.00;;;;;-147.17;100.00;59696.56;5043247;28;9401;-69
2022/05/26 00:10:11;;;;;;;;;5.33;4.00;;;;;-147.17;100.00;59696.56;5047515;28;8929;-69
2022/05/26 00:12:37;;;;;;;;;3.00;3.00;;;;;-147.17;100.00;59696.56;5061180;28;8812;-69
2022/05/26 00:15:03;;;;;;;;;2.00;2.00;;;;;-147.17;100.00;59696.56;5048627;28;8803;-69
2022/05/26 00:17:29;;;;;;;;;3.00;2.00;;;;;-147.17;100.00;59696.56;5047782;28;8827;-67
2022/05/26 00:19:54;;;;;;;;;3.00;3.00;;;;;-147.17;100.00;59696.56;5039506;28;9196;-67
2022/05/26 00:22:20;;;;;;;;;2.00;1.00;;;;;-147.17;100.00;59696.56;5045894;28;8927;-68
2022/05/26 00:24:46;;;;;;;;;3.00;2.00;;;;;-147.17;100.00;59696.56;5049041;28;9036;-68
2022/05/26 00:27:12;;;;;;;;;2.67;2.67;;;;;-147.17;100.00;59696.56;5048118;28;8831;-68
2022/05/26 00:29:38;;;;;;;;;2.00;2.00;;;;;-147.17;100.00;59696.56;5052234;28;8819;-68
2022/05/26 00:32:04;;;;;;;;;2.00;2.00;;;;;-147.17;100.00;59696.56;5051634;28;11467;-68
2022/05/26 00:34:29;;;;;;;;;2.00;2.00;;;;;-147.17;100.00;59696.56;5047888;28;10143;-68
2022/05/26 00:36:55;;;;;;;;;2.67;2.00;;;;;-147.17;100.00;59696.56;5051578;28;9390;-68
2022/05/26 00:39:22;;;;;;;;;3.00;2.00;;;;;-147.17;100.00;59696.56;5047290;28;8839;-68
2022/05/26 00:42:03;;;;;;;;;2.00;2.00;;;;;-147.17;100.00;59696.56;5052229;28;8787;-68
2022/05/26 00:44:29;;;;;;;;;2.00;2.00;;;;;-147.17;100.00;59696.56;5050576;28;9138;-68
2022/05/26 00:47:14;;;;;;;;;3.00;3.00;;;;;-147.17;100.00;59696.56;5052458;28;10068;-67
2022/05/26 00:49:39;;;;;;;;;2.00;2.00;;;;;-147.17;100.00;59696.56;5042900;28;11511;-68
2022/05/26 00:52:09;;;;;;;;;2.00;2.00;;;;;-147.17;100.00;59696.56;5040686;28;9283;-68
2022/05/26 00:54:34;;;;;;;;;1.00;1.00;;;;;-147.17;100.00;59696.56;5067399;28;8811;-68
2022/05/26 00:57:05;;;;;;;;;2.00;2.00;;;;;-147.17;100.00;59696.56;5042679;28;9114;-69
2022/05/26 00:59:40;;;;;;;;;1.33;1.33;;;;;-147.17;100.00;59696.56;5044854;28;8825;-68
2022/05/26 01:02:06;;;;;;;;;1.00;1.00;;;;;-147.17;100.00;59696.56;5052681;28;9044;-68
2022/05/26 01:04:39;;;;;;;;;2.00;1.00;;;;;-147.17;100.00;59696.56;5052265;28;9337;-69
2022/05/26 01:07:13;;;;;;;;;1.00;0.33;;;;;-147.17;100.00;59696.56;5046023;28;8844;-68
2022/05/26 01:09:39;;;;;;;;;1.00;1.00;;;;;-147.17;100.00;59696.56;5044646;28;9046;-68
2022/05/26 01:12:05;;;;;;;;;1.33;1.00;;;;;-147.17;100.00;59696.56;5052430;28;9815;-68
2022/05/26 01:14:40;;;;;;;;;1.00;0.00;;;;;-147.17;100.00;59696.56;5050650;28;8833;-68
2022/05/26 01:17:13;;;;;;;;;0.00;0.00;;;;;-147.17;100.00;59696.56;5051082;28;8980;-69
2022/05/26 01:19:57;;;;;;;;;2.00;2.00;;;;;-147.17;100.00;59696.56;5052412;28;8874;-70
2022/05/26 01:22:59;;;;;;;;;1.00;1.00;;;;;-147.17;100.00;59696.56;5052398;28;9036;-69
2022/05/26 01:25:58;;;;;;;;;2.00;1.00;;;;;-147.17;100.00;59696.56;5049553;28;9072;-68
2022/05/26 01:28:36;;;;;;;;;1.00;1.00;;;;;-147.17;100.00;59696.56;5047630;28;9153;-68
2022/05/26 01:31:24;;;;;;;;;1.00;1.00;;;;;-147.17;100.00;59696.56;5047803;28;9157;-68
2022/05/26 01:34:12;;;;;;;;;0.00;0.00;;;;;-147.17;100.00;59696.56;5039259;28;9242;-68
2022/05/26 01:36:58;;;;;;;;;2.67;1.00;;;;;-147.17;100.00;59696.56;5022282;28;9007;-68
2022/05/26 01:39:32;;;;;;;;;1.00;1.00;;;;;-147.17;100.00;59696.56;5049606;28;9076;-69
2022/05/26 01:42:05;;;;;;;;;1.00;1.00;;;;;-147.17;100.00;59696.56;5038514;28;9067;-68
2022/05/26 01:44:55;;;;;;;;;0.00;0.00;;;;;-147.17;100.00;59696.56;5049072;28;9041;-68
2022/05/26 01:47:58;;;;;;;;;0.00;0.00;;;;;-147.17;100.00;59696.56;5050822;28;9046;-68
2022/05/26 01:50:38;;;;;;;;;1.00;1.00;;;;;-147.17;100.00;59696.56;5050802;28;10038;-68
2022/05/26 01:53:20;;;;;;;;;0.00;0.00;;;;;-147.17;100.00;59696.56;5065670;28;8909;-67
2022/05/26 01:55:56;;;;;;;;;1.00;1.00;;;;;-147.17;100.00;59696.56;5050274;28;9940;-70
2022/05/26 01:58:35;;;;;;;;;1.67;1.33;;;;;-147.17;100.00;59696.56;5041367;28;9202;-68
2022/05/26 02:01:07;;;;;;;;;2.00;2.00;;;;;-147.17;100.00;59696.56;5050587;28;9180;-69
2022/05/26 02:03:35;;;;;;;;;1.00;1.00;;;;;-147.17;100.00;59696.56;5048700;28;9286;-69
2022/05/26 02:06:22;;;;;;;;;1.00;1.00;;;;;-147.17;100.00;59696.56;5046893;28;9275;-69
2022/05/26 02:08:59;;;;;;;;;0.33;0.00;;;;;-147.17;100.00;59696.56;5047768;28;9145;-69
2022/05/26 02:11:26;;;;;;;;;1.00;1.00;;;;;-147.17;100.00;59696.56;5051931;28;9052;-69
2022/05/26 02:14:00;;;;;;;;;1.00;1.00;;;;;-147.17;100.00;59696.56;5048025;28;8964;-68
2022/05/26 02:17:10;;;;;;;;;1.00;1.00;;;;;-147.17;100.00;59696.56;5038937;28;9223;-69
2022/05/26 02:19:59;;;;;;;;;1.67;1.67;;;;;-147.17;100.00;59696.56;4989906;28;9343;-67
2022/05/26 02:22:42;;;;;;;;;1.00;1.00;;;;;-147.17;100.00;59696.56;4990027;28;9169;-68
2022/05/26 02:25:17;;;;;;;;;2.00;2.00;;;;;-147.17;100.00;59696.56;5033068;28;9089;-68
2022/05/26 02:27:44;;;;;;;;;3.00;2.00;;;;;-147.17;100.00;59696.56;5051653;28;9133;-68
2022/05/26 02:30:12;;;;;;;;;1.67;1.00;;;;;-147.17;100.00;59696.56;5066768;28;9067;-68
2022/05/26 02:32:41;;;;;;;;;1.67;1.67;;;;;-147.17;100.00;59696.56;5048575;28;9131;-68
2022/05/26 02:35:22;;;;;;;;;1.33;1.33;;;;;-147.17;100.00;59696.56;5047018;28;9058;-68
2022/05/26 02:37:52;;;;;;;;;2.00;2.00;;;;;-147.17;100.00;59696.56;5047862;28;9076;-68
2022/05/26 02:40:18;;;;;;;;;1.00;1.00;;;;;-147.17;100.00;59696.56;5049465;28;9229;-68
2022/05/26 02:42:59;;;;;;;;;2.00;2.00;;;;;-147.17;100.00;59696.56;5050133;28;9917;-67
2022/05/26 02:45:38;;;;;;;;;3.00;2.00;;;;;-147.17;100.00;59696.56;5047126;28;9146;-68
2022/05/26 02:48:22;;;;;;;;;2.00;2.00;;;;;-147.17;100.00;59696.56;5051139;28;9141;-67
2022/05/26 02:51:05;;;;;;;;;2.00;2.00;;;;;-147.17;100.00;59696.56;5046326;28;9115;-69
2022/05/26 02:53:39;;;;;;;;;1.67;1.67;;;;;-147.17;100.00;59696.56;5049562;28;9229;-69
2022/05/26 02:56:22;;;;;;;;;2.00;1.00;;;;;-147.17;100.00;59696.56;5065740;28;9185;-69
2022/05/26 02:58:57;;;;;;;;;2.33;1.67;;;;;-147.17;100.00;59696.56;5049551;28;9061;-68
2022/05/26 03:01:36;;;;;;;;;1.00;1.00;;;;;-147.17;100.00;59696.56;5047988;28;9207;-68
2022/05/26 03:04:16;;;;;;;;;1.00;1.00;;;;;-147.17;100.00;59696.56;5049875;28;8980;-68
2022/05/26 03:06:51;;;;;;;;;3.00;2.00;;;;;-147.17;100.00;59696.56;5044886;28;8894;-69
2022/05/26 03:09:18;;;;;;;;;3.00;2.00;;;;;-147.17;100.00;59696.56;5043254;28;9108;-69
2022/05/26 03:11:49;;;;;;;;;3.00;2.00;;;;;-147.17;100.00;59696.56;5043497;28;9492;-69
2022/05/26 03:14:17;;;;;;;;;3.00;3.00;;;;;-147.17;100.00;59696.56;5049378;28;9439;-68
2022/05/26 03:16:43;;;;;;;;;3.67;3.00;;;;;-147.17;100.00;59696.56;5050623;28;9160;-68
2022/05/26 03:19:09;;;;;;;;;1.00;1.00;;;;;-147.17;100.00;59696.56;5050456;28;9322;-68
2022/05/26 03:21:35;;;;;;;;;1.33;1.00;;;;;-147.17;100.00;59696.56;5047081;28;9258;-68
2022/05/26 03:24:00;;;;;;;;;1.67;1.67;;;;;-147.17;100.00;59696.56;5060594;28;10055;-69
2022/05/26 03:26:26;;;;;;;;;1.00;1.00;;;;;-147.17;100.00;59696.56;5050407;28;11531;-68
2022/05/26 03:28:51;;;;;;;;;2.00;2.00;;;;;-147.17;100.00;59696.56;5046986;28;9248;-68
2022/05/26 03:31:16;;;;;;;;;2.00;2.00;;;;;-147.17;100.00;59696.56;5041759;28;8859;-68
2022/05/26 03:41:54;;;;;;;;;1.00;1.00;;;;;-147.17;100.00;59696.56;5047990;28;9081;-67
2022/05/26 03:44:21;;;;;;;;;1.33;1.33;;;;;-147.17;100.00;59696.56;5049968;28;9142;-68
2022/05/26 03:46:48;;;;;;;;;2.00;1.00;;;;;-147.17;100.00;59696.56;5045485;28;9941;-69
2022/05/26 03:49:14;;;;;;;;;1.00;1.00;;;;;-147.17;100.00;59696.56;5040095;28;9233;-68
2022/05/26 03:51:39;;;;;;;;;0.67;0.67;;;;;-147.17;100.00;59696.56;5047350;28;9297;-67
2022/05/26 03:54:05;;;;;;;;;1.33;1.33;;;;;-147.17;100.00;59696.56;5047524;28;8927;-68
2022/05/26 03:56:30;;;;;;;;;2.00;2.00;;;;;-147.17;100.00;59696.56;5050320;28;9613;-68
2022/05/26 03:58:56;;;;;;;;;2.00;1.00;;;;;-147.17;100.00;59696.56;5035707;28;9551;-69
2022/05/26 04:01:22;;;;;;;;;1.00;0.67;;;;;-147.17;100.00;59696.56;5046937;28;8939;-68
2022/05/26 04:03:48;;;;;;;;;1.00;1.00;;;;;-147.17;100.00;59696.56;5052887;28;8815;-69
2022/05/26 04:06:15;;;;;;;;;1.00;1.00;;;;;-147.17;100.00;59696.56;5052333;28;8850;-69
2022/05/26 04:08:40;;;;;;;;;0.00;0.00;;;;;-147.17;100.00;59696.56;5052929;28;9077;-68
2022/05/26 04:11:06;;;;;;;;;1.00;1.00;;;;;-147.17;100.00;59696.56;5050488;28;9022;-69
2022/05/26 04:13:32;;;;;;;;;2.00;2.00;;;;;-147.17;100.00;59696.56;5053442;28;8803;-68
2022/05/26 04:15:57;;;;;;;;;0.00;0.00;;;;;-147.17;100.00;59696.56;5039707;28;8855;-68
2022/05/26 04:18:22;;;;;;;;;1.00;0.00;;;;;-147.17;100.00;59696.56;5053754;28;8834;-68
2022/05/26 04:20:48;;;;;;;;;1.00;1.00;;;;;-147.17;100.00;59696.56;5050551;28;8838;-69
2022/05/26 04:23:13;;;;;;;;;0.67;0.67;;;;;-147.17;100.00;59696.56;5046228;28;8855;-69
2022/05/26 04:25:38;;;;;;;;;1.00;1.00;;;;;-147.17;100.00;59696.56;5051659;28;8921;-69
2022/05/26 04:28:04;;;;;;;;;2.00;2.00;;;;;-147.17;100.00;59696.56;5049305;28;8807;-70
2022/05/26 04:30:30;;;;;;;;;2.00;1.00;;;;;-147.17;100.00;59696.56;5051349;28;8818;-69
2022/05/26 04:32:56;;;;;;;;;1.00;1.00;;;;;-147.17;100.00;59696.56;5047971;28;8809;-68
2022/05/26 04:35:22;;;;;;;;;1.00;1.00;;;;;-147.17;100.00;59696.56;5046430;28;8908;-69
2022/05/26 04:37:48;;;;;;;;;3.00;2.00;;;;;-147.17;100.00;59696.56;5050054;28;9157;-68
2022/05/26 04:40:14;;;;;;;;;1.00;0.33;;;;;-147.17;100.00;59696.56;5047061;28;8815;-68
2022/05/26 04:42:39;;;;;;;;;1.00;1.00;;;;;-147.17;100.00;59696.56;5053136;28;11502;-68
2022/05/26 04:45:07;;;;;;;;;2.00;1.00;;;;;-147.17;100.00;59696.56;5050675;28;9444;-68
2022/05/26 04:47:33;;;;;;;;;2.00;1.00;;;;;-147.17;100.00;59696.56;5068655;28;8827;-68
2022/05/26 04:49:58;;;;;;;;;2.00;1.67;;;;;-147.17;100.00;59696.56;5051171;28;9217;-68
2022/05/26 04:52:24;;;;;;;;;2.00;2.00;;;;;-147.17;100.00;59696.56;5053001;28;8906;-68
2022/05/26 04:54:52;;;;;;;;;2.00;1.00;;;;;-147.17;100.00;59696.56;5065469;28;8833;-68
2022/05/26 04:57:22;;;;;;;;;1.00;1.00;;;;;-147.17;100.00;59696.56;5050478;28;9156;-68
2022/05/26 04:59:47;;;;;;;;;1.00;0.00;;;;;-147.17;100.00;59696.56;5052966;28;9140;-68
2022/05/26 05:02:16;;;;;;;;;1.67;1.00;;;;;-147.17;100.00;59696.56;5052493;28;8878;-69
2022/05/26 05:04:44;;;;;;;;;4.00;4.00;;;;;-147.17;100.00;59696.56;5046897;28;8857;-68
2022/05/26 05:07:12;;;;;;;;;2.00;1.00;;;;;-147.17;100.00;59696.56;5052033;28;9456;-68
2022/05/26 05:09:39;;;;;;;;;1.67;1.00;;;;;-147.17;100.00;59696.56;5052339;28;9746;-69
2022/05/26 05:12:05;;;;;;;;;2.00;2.00;;;;;-147.17;100.00;59696.56;5052650;28;9348;-68
2022/05/26 05:14:39;;;;;;;;;1.00;1.00;;;;;-147.17;100.00;59696.56;5046738;28;9977;-68
2022/05/26 05:17:04;;;;;;;;;2.00;1.00;;;;;-147.17;100.00;59696.56;5051691;28;9137;-68
2022/05/26 05:19:29;;;;;;;;;1.67;1.00;;;;;-147.17;100.00;59696.56;5052218;28;9126;-68
2022/05/26 05:22:00;;;;;;;;;2.00;1.00;;;;;-147.17;100.00;59696.56;5048518;28;8829;-68
2022/05/26 05:24:29;;;;;;;;;2.67;1.00;;;;;-147.17;100.00;59696.56;5071424;28;8852;-68
2022/05/26 05:27:00;;;;;;;;;2.00;2.00;;;;;-147.17;100.00;59696.56;5051599;28;10491;-68
2022/05/26 05:29:31;;;;;;;;;2.00;2.00;;;;;-147.17;100.00;59696.56;5046815;28;9201;-68
2022/05/26 05:32:02;;;;;;;;;1.00;1.00;;;;;-147.17;100.00;59696.56;5050671;28;9119;-67
2022/05/26 05:34:36;;;;;;;;;2.00;1.00;;;;;-147.17;100.00;59696.56;5049413;28;9049;-68
2022/05/26 05:37:01;;;;;;;;;1.67;1.00;;;;;-147.17;100.00;59696.56;5051372;28;9129;-68
2022/05/26 05:39:28;;;;;;;;;1.00;1.00;;;;;-147.17;100.00;59696.56;5039260;28;9239;-68
2022/05/26 05:41:55;;;;;;;;;1.00;1.00;;;;;-147.17;100.00;59696.56;5050468;28;8811;-68
2022/05/26 05:44:22;;;;;;;;;3.00;1.67;;;;;-147.17;100.00;59696.56;5050170;28;9065;-68
2022/05/26 05:46:59;;;;;;;;;1.00;1.00;;;;;-147.17;100.00;59696.56;5050448;28;9092;-68
2022/05/26 05:49:29;;;;;;;;;1.00;1.00;;;;;-147.17;100.00;59696.56;5051267;28;9269;-68
2022/05/26 05:51:57;;;;;;;;;2.00;2.00;;;;;-147.17;100.00;59696.56;5051882;28;8964;-68
2022/05/26 05:54:23;;;;;;;;;0.00;0.00;;;;;-147.17;100.00;59696.56;5065999;28;9062;-67
2022/05/26 05:56:49;;;;;;;;;1.00;1.00;;;;;-147.17;100.00;59696.56;5049755;28;9210;-69
2022/05/26 05:59:14;;;;;;;;;1.00;1.00;;;;;-147.17;100.00;59696.56;5051538;28;8787;-69
2022/05/26 06:01:40;;;;;;;;;1.00;1.00;;;;;-147.17;100.00;59696.56;5047382;28;8992;-68
2022/05/26 06:04:07;;;;;;;;;1.00;1.00;;;;;-147.17;100.00;59696.56;5050177;28;9553;-68
2022/05/26 06:06:37;;;;;;;;;1.00;1.00;;;;;-147.17;100.00;59696.56;5047394;28;9525;-67
2022/05/26 06:09:03;;;;;;;;;1.00;1.00;;;;;-147.17;100.00;59696.56;5047621;28;9202;-70
2022/05/26 06:11:29;;;;;;;;;0.00;0.00;;;;;-147.17;100.00;59696.56;5049018;28;8947;-69
2022/05/26 06:13:54;;;;;;;;;1.00;1.00;;;;;-147.17;100.00;59696.56;5047159;28;8891;-70
2022/05/26 06:16:19;;;;;;;;;1.00;1.00;;;;;-147.17;100.00;59696.56;5042151;28;8900;-69
2022/05/26 06:18:46;;;;;;;;;2.67;2.00;;;;;-147.17;100.00;59696.56;5049745;28;8866;-68
2022/05/26 06:21:11;;;;;;;;;1.00;1.00;;;;;-147.17;100.00;59696.56;5048129;28;8795;-69
2022/05/26 06:23:36;;;;;;;;;1.00;1.00;;;;;-147.17;100.00;59696.56;5050847;28;9022;-68
2022/05/26 06:26:02;;;;;;;;;0.33;0.33;;;;;-147.17;100.00;59696.56;5050837;28;8799;-67
2022/05/26 06:31:11;;;;;;;;;2.00;1.00;;;;;-147.17;100.00;59696.56;5048455;28;8798;-69
2022/05/26 06:39:09;;;;;;;;;1.00;0.33;;;;;-147.17;100.00;59696.56;5045365;28;8894;-70
2022/05/26 06:44:19;;;;;;;;;1.00;1.00;;;;;-147.17;100.00;59696.56;5051324;28;8791;-68
2022/05/26 06:46:44;;;;;;;;;1.00;1.00;;;;;-147.17;100.00;59696.56;5050672;28;8829;-70
2022/05/26 06:49:09;;;;;;;;;1.00;1.00;;;;;-147.17;100.00;59696.56;5042954;28;11529;-68
2022/05/26 06:51:36;;;;;;;;;1.00;1.00;;;;;-147.17;100.00;59696.56;5045295;28;8841;-68
2022/05/26 06:54:03;;;;;;;;;13.25;13.00;;;;;-147.17;100.00;59696.56;5045457;28;9631;-69
2022/05/26 06:56:29;;;;;;;;;1.00;1.00;;;;;-147.17;100.00;59696.56;5044264;28;9834;-69
2022/05/26 06:58:54;;;;;;;;;3.33;3.00;;;;;-147.17;100.00;59696.56;5046400;28;9195;-69
2022/05/26 07:01:20;;;;;;;;;1.00;1.00;;;;;-147.17;100.00;59696.56;5060962;28;8843;-69
2022/05/26 07:03:45;;;;;;;;;0.00;0.00;;;;;-147.17;100.00;59696.56;5046874;28;8859;-69
2022/05/26 07:06:16;;;;;;;;;0.67;0.67;;;;;-147.17;100.00;59696.56;5041339;28;8891;-68
2022/05/26 07:08:43;;;;;;;;;0.00;0.00;;;;;-147.17;100.00;59696.56;5041285;28;8799;-69
2022/05/26 07:11:08;;;;;;;;;0.00;0.00;;;;;-147.17;100.00;59696.56;5047490;28;8890;-69
2022/05/26 07:13:33;;;;;;;;;1.00;1.00;;;;;-147.17;100.00;59696.56;5050402;28;8811;-68
2022/05/26 07:15:59;;;;;;;;;1.00;0.67;;;;;-147.17;100.00;59696.56;5049795;28;8838;-68
2022/05/26 07:18:24;;;;;;;;;0.00;0.00;;;;;-147.17;100.00;59696.56;5045470;28;8879;-68
2022/05/26 07:20:49;;;;;;;;;0.00;0.00;;;;;-147.17;100.00;59696.56;5043928;28;8831;-69
2022/05/26 07:23:15;;;;;;;;;0.00;0.00;;;;;-147.17;100.00;59696.56;5042462;28;8991;-69
2022/05/26 07:25:41;;;;;;;;;0.00;0.00;;;;;-147.17;100.00;59696.56;5048810;28;8807;-68
2022/05/26 07:28:07;;;;;;;;;0.00;0.00;;;;;-147.17;100.00;59696.56;5041833;28;8819;-67
2022/05/26 07:30:32;;;;;;;;;0.00;0.00;;;;;-147.17;100.00;59696.56;5046531;28;8881;-69
2022/05/26 07:32:57;;;;;;;;;0.00;0.00;;;;;-147.17;100.00;59696.56;5037399;28;8814;-71
2022/05/26 07:35:23;;;;;;;;;0.67;0.67;;;;;-147.17;100.00;59696.56;5044030;28;8977;-70
2022/05/26 07:43:17;;;;;;;;;0.50;0.00;;;;;-147.17;100.00;59696.56;5043755;28;8803;-68
2022/05/26 07:45:42;;;;;;;;;0.50;0.50;;;;;-147.17;100.00;59696.56;5046808;28;8807;-71
2022/05/26 07:48:08;;;;;;;;;0.33;0.00;;;;;-147.17;100.00;59696.56;5053634;28;8878;-68
2022/05/26 07:50:33;;;;;;;;;1.00;0.67;;;;;-147.17;100.00;59696.56;5050849;28;8977;-68
2022/05/26 07:52:59;;;;;;;;;0.00;0.00;;;;;-147.17;100.00;59696.56;5043202;28;8935;-69
2022/05/26 07:55:24;;;;;;;;;0.67;0.67;;;;;-147.17;100.00;59696.56;5047476;28;8882;-69
2022/05/26 07:57:50;;;;;;;;;2.00;2.00;;;;;-147.17;100.00;59696.56;5046655;28;8835;-68
2022/05/26 08:00:16;;;;;;;;;2.00;2.00;;;;;-147.17;100.00;59696.56;5047375;28;8866;-70
2022/05/26 08:02:42;;;;;;;;;0.75;0.75;;;;;-147.17;100.00;59696.56;5051688;28;8787;-69
2022/05/26 08:05:09;;;;;;;;;0.00;0.00;;;;;-147.17;100.00;59696.56;5051080;28;8803;-69
2022/05/26 08:07:35;;;;;;;;;0.50;0.50;;;;;-147.17;100.00;59696.56;5051051;28;12250;-69
2022/05/26 08:10:01;;;;;;;;;0.33;0.33;;;;;-147.17;100.00;59696.56;5030297;28;8853;-68
2022/05/26 08:12:26;;;;;;;;;0.67;0.67;;;;;-147.17;100.00;59696.56;5051264;28;8849;-68
2022/05/26 08:14:52;;;;;;;;;2.67;2.33;;;;;-147.17;100.00;59696.56;5050513;28;11602;-68
2022/05/26 08:17:23;;;;;;;;;2.33;2.33;;;;;-147.17;100.00;59696.56;5052845;28;8841;-70
2022/05/26 08:19:49;;;;;;;;;2.33;2.00;;;;;-147.17;100.00;59696.56;5067480;28;9077;-69
2022/05/26 08:22:15;;;;;;;;;3.67;3.33;;;;;-147.17;100.00;59696.56;5049785;28;9050;-71
2022/05/26 08:24:41;;;;;;;;;2.33;2.00;;;;;-147.17;100.00;59696.56;5049953;28;9027;-69
2022/05/26 08:27:06;;;;;;;;;3.67;3.33;;;;;-147.17;100.00;59696.56;5050601;28;9359;-69
2022/05/26 08:29:32;;;;;;;;;3.33;3.33;;;;;-147.17;100.00;59696.56;5046247;28;8822;-70
2022/05/26 08:31:57;;;;;;;;;1.67;1.67;;;;;-147.17;100.00;59696.56;5050880;28;9016;-70
2022/05/26 08:34:23;;;;;;;;;3.67;3.67;;;;;-147.17;100.00;59696.56;5050268;28;9540;-70
2022/05/26 08:36:49;;;;;;;;;3.00;3.00;;;;;-147.17;100.00;59696.56;5050472;28;8965;-69
2022/05/26 08:39:15;;;;;;;;;5.00;5.00;;;;;-147.17;100.00;59696.56;5043095;28;9517;-70
2022/05/26 08:41:48;;;;;;;;;5.67;5.67;;;;;-147.17;100.00;59696.56;5050252;28;8850;-69
2022/05/26 08:44:22;;;;;;;;;4.33;3.67;;;;;-147.17;100.00;59696.56;5050635;28;9075;-69
2022/05/26 08:46:55;;;;;;;;;4.00;3.33;;;;;-147.17;100.00;59696.56;5051148;28;9973;-69
2022/05/26 08:49:52;;;;;;;;;3.00;3.00;;;;;-147.17;100.00;59696.56;5047770;28;8994;-70
2022/05/26 08:52:30;;;;;;;;;3.00;3.00;;;;;-147.17;100.00;59696.56;5021721;28;9522;-70
2022/05/26 08:55:03;;;;;;;;;3.00;3.00;;;;;-147.17;100.00;59696.56;5048139;28;8898;-68
2022/05/26 08:57:38;;;;;;;;;3.75;3.25;;;;;-147.17;100.00;59696.56;5044043;28;9298;-68
2022/05/26 09:00:05;;;;;;;;;4.00;3.25;;;;;-147.17;100.00;59696.56;5042341;28;8850;-69
2022/05/26 09:02:35;;;;;;;;;2.67;2.67;;;;;-147.17;100.00;59696.56;5045146;28;8814;-70
2022/05/26 09:05:10;;;;;;;;;4.00;4.00;;;;;-147.17;100.00;59696.56;5046375;28;8975;-70
2022/05/26 09:13:20;;;;;;;;;4.00;3.50;;;;;-147.17;100.00;59696.56;5046423;28;8823;-69
2022/05/26 09:15:46;;;;;;;;;3.00;2.00;;;;;-147.17;100.00;59696.56;5049963;28;8841;-68
2022/05/26 09:18:20;;;;;;;;;1.00;1.00;;;;;-147.17;100.00;59696.56;5043554;28;8819;-69
2022/05/26 09:20:48;;;;;;;;;4.00;3.75;;;;;-147.17;100.00;59696.56;5050861;28;8772;-69
2022/05/26 09:23:15;;;;;;;;;2.00;2.00;;;;;-147.17;100.00;59696.56;5049555;28;8878;-69
2022/05/26 09:26:09;;;;;;;;;1.75;1.50;;;;;-147.17;100.00;59696.56;5049664;28;8799;-70
2022/05/26 09:28:38;;;;;;;;;1.50;1.50;;;;;-147.17;100.00;59696.56;5048386;28;8936;-67
2022/05/26 09:31:31;;;;;;;;;3.00;2.75;;;;;-147.17;100.00;59696.56;5049244;28;8810;-67
2022/05/26 09:34:10;;;;;;;;;3.00;3.00;;;;;-147.17;100.00;59696.56;5045358;28;8922;-69
2022/05/26 09:36:36;;;;;;;;;3.00;3.00;;;;;-147.17;100.00;59696.56;5050819;28;8865;-69
2022/05/26 09:39:03;;;;;;;;;1.25;1.25;;;;;-147.17;100.00;59696.56;5048606;28;8787;-71
2022/05/26 09:41:36;;;;;;;;;6.33;5.33;;;;;-147.17;100.00;59696.56;5050505;28;8825;-69
2022/05/26 09:44:02;;;;;;;;;4.00;4.00;;;;;-147.17;100.00;59696.56;5050402;28;9782;-70
2022/05/26 09:46:28;;;;;;;;;3.00;2.67;;;;;-147.17;100.00;59696.56;5061237;28;8966;-70
2022/05/26 09:49:12;;;;;;;;;4.00;4.00;;;;;-147.17;100.00;59696.56;5048269;28;8814;-70
2022/05/26 09:51:43;;;;;;;;;3.67;3.00;;;;;-147.17;100.00;59696.56;5048539;28;8777;-69
2022/05/26 09:54:25;;;;;;;;;3.33;3.33;;;;;-147.17;100.00;59696.56;5050000;28;8885;-70
2022/05/26 09:56:51;;;;;;;;;3.50;3.50;;;;;-147.17;100.00;59696.56;5049445;28;9726;-69
2022/05/26 09:59:23;;;;;;;;;3.00;3.00;;;;;-147.17;100.00;59696.56;5047519;28;8984;-70
2022/05/26 10:01:52;;;;;;;;;3.25;3.00;;;;;-147.17;100.00;59696.56;5046107;28;8811;-69
2022/05/26 10:04:41;;;;;;;;;3.25;3.25;;;;;-147.17;100.00;59696.56;5041896;28;8827;-71
2022/05/26 10:07:31;;;;;;;;;5.00;4.00;;;;;-147.17;100.00;59696.56;5039409;28;8892;-75
2022/05/26 10:10:14;;;;;;;;;3.00;3.00;;;;;-147.17;100.00;59696.56;5046262;28;8907;-74
2022/05/26 10:12:52;;;;;;;;;3.75;3.75;;;;;-147.17;100.00;59696.56;5047993;28;8791;-73
2022/05/26 10:15:40;;;;;;;;;3.25;3.25;;;;;-147.17;100.00;59696.56;5046991;28;8819;-74
2022/05/26 10:18:28;;;;;;;;;3.00;3.00;;;;;-147.17;100.00;59696.56;5044851;28;8925;-71
2022/05/26 10:21:15;;;;;;;;;3.67;3.67;;;;;-147.17;100.00;59696.56;5031813;28;9623;-72
2022/05/26 10:24:03;;;;;;;;;4.00;4.00;;;;;-147.17;100.00;59696.56;5043700;28;9043;-73
2022/05/26 10:26:56;;;;;;;;;6.67;6.00;;;;;-147.17;100.00;59696.56;5033842;28;9307;-72
2022/05/26 10:29:51;;;;;;;;;4.67;4.00;;;;;-147.17;100.00;59696.56;5036247;28;9028;-73
2022/05/26 10:32:36;;;;;;;;;3.00;3.00;;;;;-147.17;100.00;59696.56;5034690;28;9223;-73
2022/05/26 10:35:10;;;;;;;;;4.00;3.00;;;;;-147.17;100.00;59696.56;5038103;28;8918;-73
2022/05/26 10:37:47;;;;;;;;;2.50;2.50;;;;;-147.17;100.00;59696.56;5036491;28;9014;-72
2022/05/26 10:40:28;;;;;;;;;4.00;3.25;;;;;-147.17;100.00;59696.56;5050489;28;8840;-71
2022/05/26 10:42:56;;;;;;;;;2.00;1.75;;;;;-147.17;100.00;59696.56;5035710;28;8801;-73
2022/05/26 10:45:26;;;;;;;;;2.50;2.50;;;;;-147.17;100.00;59696.56;5034092;28;8876;-74
2022/05/26 10:48:09;;;;;;;;;4.33;3.67;;;;;-147.17;100.00;59696.56;5028597;28;8822;-73
2022/05/26 10:51:08;;;;;;;;;4.00;3.33;;;;;-147.17;100.00;59696.56;5035107;28;9045;-72
2022/05/26 10:54:01;;;;;;;;;4.75;4.75;;;;;-147.17;100.00;59696.56;5033768;28;9407;-72
2022/05/26 10:56:40;;;;;;;;;2.75;2.00;;;;;-147.17;100.00;59696.56;5051819;28;8806;-71
2022/05/26 10:59:35;;;;;;;;;27.25;23.50;;;;;-147.17;100.00;59696.56;5034485;28;9558;-71
2022/05/26 11:02:14;;;;;;;;;5.00;5.00;;;;;-147.17;100.00;59696.56;5038393;28;11173;-71
2022/05/26 11:05:13;;;;;;;;;2.25;1.50;;;;;-147.17;100.00;59696.56;5035215;28;9210;-73
2022/05/26 11:07:44;;;;;;;;;5.25;5.00;;;;;-147.17;100.00;59696.56;4996188;28;8956;-73
2022/05/26 11:10:22;;;;;;;;;4.00;4.00;;;;;-147.17;100.00;59696.56;5035640;28;8802;-73
2022/05/26 11:13:05;;;;;;;;;4.00;4.00;;;;;-147.17;100.00;59696.56;5034937;28;9658;-64
2022/05/26 11:18:48;;;;;;;;;5.00;5.00;;;;;-147.17;100.00;59696.56;5004088;28;8843;-62
2022/05/26 11:21:19;;;;;;;;;5.00;4.00;;;;;-147.17;100.00;59696.56;5039681;28;8922;-64
2022/05/26 11:23:44;;;;;;;;;5.67;5.67;;;;;-147.17;100.00;59696.56;5036463;28;8851;-63
2022/05/26 11:26:22;;;;;;;;;4.00;4.00;;;;;-147.17;100.00;59696.56;5043278;28;9773;-64
2022/05/26 11:28:56;;;;;;;;;3.00;3.00;;;;;-147.17;100.00;59696.56;5043556;28;8917;-64
2022/05/26 11:37:29;;;;;;;;;4.33;4.33;;;;;-147.17;100.00;59696.56;5040618;28;8918;-64
2022/05/26 11:40:00;;;;;;;;;2.75;2.75;;;;;-147.17;100.00;59696.56;5048342;28;8997;-67
2022/05/26 11:42:35;;;;;;;;;4.00;4.00;;;;;-147.17;100.00;59696.56;5044707;28;8835;-64
2022/05/26 11:45:21;;;;;;;;;3.00;3.00;;;;;-147.17;100.00;59696.56;5047315;28;8783;-62
2022/05/26 11:48:18;;;;;;;;;2.50;2.50;;;;;-147.17;100.00;59696.56;5035519;28;8791;-64
2022/05/26 11:50:43;;;;;;;;;2.00;2.00;;;;;-147.17;100.00;59696.56;5035738;28;8818;-62
2022/05/26 11:53:13;;;;;;;;;3.67;3.67;;;;;-147.17;100.00;59696.56;5047802;28;8822;-65
2022/05/26 11:56:17;;;;;;;;;1.25;1.25;;;;;-147.17;100.00;59696.56;5049433;28;8830;-63
2022/05/26 11:58:44;;;;;;;;;4.75;4.75;;;;;-147.17;100.00;59696.56;5042881;28;8830;-63
2022/05/26 12:01:19;;;;;;;;;3.75;3.50;;;;;-147.17;100.00;59696.56;5047417;28;8815;-64
2022/05/26 12:03:53;;;;;;;;;2.75;2.75;;;;;-147.17;100.00;59696.56;5043589;28;8907;-63
2022/05/26 12:06:36;;;;;;;;;3.00;2.75;;;;;-147.17;100.00;59696.56;5042337;28;8783;-62
2022/05/26 12:09:05;;;;;;;;;2.25;2.25;;;;;-147.17;100.00;59696.56;5048254;28;8850;-63
2022/05/26 12:11:52;;;;;;;;;4.25;3.75;;;;;-147.17;100.00;59696.56;5063139;28;8784;-63
2022/05/26 12:14:25;;;;;;;;;2.25;2.00;;;;;-147.17;100.00;59696.56;5047711;28;8835;-64
2022/05/26 12:16:51;;;;;;;;;4.25;4.00;;;;;-147.17;100.00;59696.56;5045930;28;8818;-63